This is the latest recevied weather packets stored in our database for station/object HI3LT-13. If no packets are shown the sender has not sent any weather packets the latest 10 day(s).
| Time | Temp. | Humidity | Pressure | Rain* | Wind** | Luminosity | Snow |
|---|---|---|---|---|---|---|---|
| 1788479285 | 28.89° C | 72% | 1014 hPa | 0 mm | - | - | - |
| 1788478684 | 27.78° C | 74% | 1014 hPa | 0 mm | - | - | - |
| 1788478084 | 29.44° C | 72% | 1013 hPa | 0 mm | - | - | - |
| 1788477483 | 30.56° C | 70% | 1013 hPa | 0 mm | - | - | - |
| 1788476883 | 30.56° C | 70% | 1013 hPa | 0 mm | - | - | - |
| 1788476282 | 28.89° C | 70% | 1014 hPa | 0 mm | - | - | - |
| 1788475681 | 28.89° C | 70% | 1014 hPa | 0 mm | - | - | - |
| 1788475081 | 29.44° C | 70% | 1014 hPa | 0 mm | - | - | - |
| 1788474480 | 31.67° C | 60% | 1013 hPa | 0 mm | - | - | - |
| 1788473879 | 31.67° C | 60% | 1013 hPa | 0 mm | - | - | - |
| 1788473279 | 33.33° C | 54% | 1013 hPa | 0 mm | - | - | - |
| 1788472678 | 32.78° C | 59% | 1013 hPa | 0 mm | - | - | - |
| 1788472078 | 32.78° C | 59% | 1013 hPa | 0 mm | - | - | - |
| 1788471477 | 32.78° C | 59% | 1013 hPa | 0 mm | - | - | - |
| 1788470876 | 32.78° C | 59% | 1012 hPa | 0 mm | - | - | - |
| 1788470276 | 33.33° C | 53% | 1012 hPa | 0 mm | - | - | - |
| 1788469675 | 33.33° C | 53% | 1012 hPa | 0 mm | - | - | - |
| 1788469075 | 32.78° C | 56% | 1012 hPa | 0 mm | - | - | - |
| 1788468474 | 32.78° C | 56% | 1012 hPa | 0 mm | - | - | - |
| 1788467873 | 32.78° C | 56% | 1012 hPa | 0 mm | - | - | - |
| 1788467273 | 33.33° C | 56% | 1012 hPa | 0 mm | - | - | - |
| 1788466672 | 35.56° C | 53% | 1012 hPa | 0 mm | - | - | - |
| 1788466071 | 35.56° C | 53% | 1012 hPa | 0 mm | - | - | - |
| 1788465471 | 35° C | 55% | 1012 hPa | 0 mm | - | - | - |
| 1788464870 | 35.56° C | 53% | 1013 hPa | 0 mm | - | - | - |
* Rain latest hour (hover to see other rain measurements)
** Current wind speed in m/s (hover to see current wind gust speed)